Time;durP1;ratioP1;P1;durP2;ratioP2;P2;SDS_P1;SDS_P2;PMS_P1;PMS_P2;Temp;Humidity;BMP_temperature;BMP_pressure;BME280_temperature;BME280_humidity;BME280_pressure;Samples;Min_cycle;Max_cycle;Signal;HPM_P1;HPM_P2
2024/02/25 00:01:44;;;;;;;11.50;8.70;;;;;;;8.14;100.00;100728.23;86927;273;136986;-72
2024/02/25 00:03:46;;;;;;;10.00;7.50;;;;;;;8.11;100.00;100720.89;87081;273;23912;-73
2024/02/25 00:05:48;;;;;;;12.50;8.70;;;;;;;8.10;100.00;100718.91;87672;273;137868;-70
2024/02/25 00:07:50;;;;;;;12.50;8.90;;;;;;;8.05;100.00;100716.27;87682;273;22535;-69
2024/02/25 00:09:52;;;;;;;13.30;8.70;;;;;;;8.03;100.00;100710.23;87603;273;138484;-69
2024/02/25 00:11:54;;;;;;;11.10;9.10;;;;;;;8.03;100.00;100716.98;87110;273;22573;-70
2024/02/25 00:13:56;;;;;;;14.30;10.40;;;;;;;8.00;100.00;100714.14;87549;277;138479;-67
2024/02/25 00:15:58;;;;;;;13.50;9.80;;;;;;;8.02;100.00;100719.61;87685;274;24064;-69
2024/02/25 00:18:00;;;;;;;17.10;9.00;;;;;;;8.02;100.00;100725.83;88256;273;138079;-72
2024/02/25 00:20:04;;;;;;;11.80;8.80;;;;;;;7.99;100.00;100723.88;87659;273;25081;-67
2024/02/25 00:22:05;;;;;;;6.80;6.10;;;;;;;7.98;100.00;100726.38;87632;266;24010;-67
2024/02/25 00:24:07;;;;;;;9.50;7.10;;;;;;;7.93;100.00;100723.14;87106;273;138022;-70
2024/02/25 00:26:09;;;;;;;7.00;5.00;;;;;;;7.89;100.00;100728.52;87714;274;22577;-70
2024/02/25 00:28:12;;;;;;;9.20;7.00;;;;;;;7.90;100.00;100716.77;87596;278;136869;-67
2024/02/25 00:30:14;;;;;;;7.50;6.70;;;;;;;7.90;100.00;100726.62;87694;270;22564;-70
2024/02/25 00:32:16;;;;;;;7.90;6.40;;;;;;;7.92;100.00;100721.98;87457;271;137086;-67
2024/02/25 00:34:18;;;;;;;11.20;8.40;;;;;;;7.91;100.00;100730.23;87649;278;23289;-68
2024/02/25 00:36:20;;;;;;;10.90;9.10;;;;;;;7.87;100.00;100730.69;87113;273;136833;-65
2024/02/25 00:38:22;;;;;;;11.90;9.00;;;;;;;7.83;100.00;100721.88;87176;273;24087;-69
2024/02/25 00:40:23;;;;;;;10.50;8.10;;;;;;;7.79;100.00;100728.64;87073;273;137010;-69
2024/02/25 00:42:25;;;;;;;10.10;7.80;;;;;;;7.81;100.00;100714.48;87736;270;22651;-69
2024/02/25 00:44:27;;;;;;;11.10;8.40;;;;;;;7.82;100.00;100718.80;87538;266;136997;-69
2024/02/25 00:46:29;;;;;;;12.90;8.70;;;;;;;7.78;100.00;100718.67;87128;270;24657;-70
2024/02/25 00:48:31;;;;;;;11.40;7.50;;;;;;;7.78;100.00;100734.13;87582;270;136819;-68
2024/02/25 00:50:32;;;;;;;13.60;8.60;;;;;;;7.75;100.00;100731.98;87687;269;22505;-68
2024/02/25 00:52:34;;;;;;;11.80;8.80;;;;;;;7.71;100.00;100724.10;87530;273;136962;-69
2024/02/25 00:54:37;;;;;;;12.80;8.60;;;;;;;7.66;100.00;100731.45;87699;270;24025;-69
2024/02/25 00:56:39;;;;;;;14.70;10.40;;;;;;;7.67;100.00;100731.73;87551;270;137224;-72
2024/02/25 00:58:41;;;;;;;12.30;9.20;;;;;;;7.67;100.00;100725.84;87752;270;25108;-66
2024/02/25 01:00:42;;;;;;;11.60;9.50;;;;;;;7.67;100.00;100731.95;87420;273;137386;-70
2024/02/25 01:02:46;;;;;;;13.60;9.10;;;;;;;7.65;100.00;100731.73;87674;277;22828;-66
2024/02/25 01:04:48;;;;;;;13.30;9.50;;;;;;;7.62;100.00;100724.29;87418;269;137436;-71
2024/02/25 01:06:51;;;;;;;11.60;9.80;;;;;;;7.62;100.00;100727.64;87770;266;22581;-73
2024/02/25 01:08:53;;;;;;;14.90;10.40;;;;;;;7.60;100.00;100729.02;87588;266;138584;-68
2024/02/25 01:10:55;;;;;;;13.70;10.10;;;;;;;7.56;100.00;100728.08;87573;267;22605;-71
2024/02/25 01:12:57;;;;;;;11.70;9.40;;;;;;;7.48;100.00;100733.48;87461;270;138094;-73
2024/02/25 01:14:59;;;;;;;11.90;8.40;;;;;;;7.46;100.00;100737.64;87675;269;22570;-68
2024/02/25 01:17:01;;;;;;;12.60;10.00;;;;;;;7.46;100.00;100737.05;87562;269;137202;-67
2024/02/25 01:19:02;;;;;;;11.40;8.90;;;;;;;7.46;100.00;100739.14;87671;273;23414;-68
2024/02/25 01:21:04;;;;;;;10.30;8.80;;;;;;;7.46;100.00;100741.83;87586;273;137859;-70
2024/02/25 01:23:06;;;;;;;15.00;8.50;;;;;;;7.48;100.00;100741.84;87676;274;22575;-69
2024/02/25 01:25:08;;;;;;;13.00;10.50;;;;;;;7.47;100.00;100738.88;86946;271;138426;-71
2024/02/25 01:27:10;;;;;;;11.50;8.90;;;;;;;7.47;100.00;100744.55;87829;274;22518;-66
2024/02/25 01:29:12;;;;;;;18.90;9.10;;;;;;;7.46;100.00;100742.71;86980;268;137335;-67
2024/02/25 01:31:13;;;;;;;18.10;10.20;;;;;;;7.47;100.00;100747.49;87114;268;22568;-69
2024/02/25 01:33:15;;;;;;;16.60;10.10;;;;;;;7.48;100.00;100740.94;87589;273;138190;-66
2024/02/25 01:35:17;;;;;;;14.80;9.70;;;;;;;7.47;100.00;100737.13;87700;265;24029;-68
2024/02/25 01:37:19;;;;;;;13.40;9.60;;;;;;;7.44;100.00;100737.57;87193;277;136966;-70
2024/02/25 01:39:22;;;;;;;13.60;10.50;;;;;;;7.45;100.00;100743.21;87118;269;22573;-68
2024/02/25 01:41:25;;;;;;;14.20;10.00;;;;;;;7.48;100.00;100739.13;87539;270;136948;-66
2024/02/25 01:43:27;;;;;;;12.70;9.70;;;;;;;7.48;100.00;100742.36;87665;273;25080;-67
2024/02/25 01:45:28;;;;;;;14.80;10.40;;;;;;;7.47;100.00;100746.38;87601;269;136392;-67
2024/02/25 01:47:30;;;;;;;10.00;8.80;;;;;;;7.43;100.00;100743.34;87671;265;24109;-70
2024/02/25 01:49:32;;;;;;;12.30;9.20;;;;;;;7.41;100.00;100749.81;87631;274;136394;-69
2024/02/25 01:51:34;;;;;;;12.40;10.20;;;;;;;7.38;100.00;100751.66;87638;270;22568;-68
2024/02/25 01:53:37;;;;;;;13.20;9.50;;;;;;;7.35;100.00;100749.83;87563;261;138268;-70
2024/02/25 01:55:40;;;;;;;15.10;10.30;;;;;;;7.35;100.00;100755.55;87694;269;22555;-70
2024/02/25 01:57:42;;;;;;;13.20;10.30;;;;;;;7.34;100.00;100760.20;87193;269;138354;-67
2024/02/25 01:59:45;;;;;;;15.50;11.00;;;;;;;7.35;100.00;100752.67;87111;273;22630;-67
2024/02/25 02:01:47;;;;;;;13.50;10.70;;;;;;;7.37;100.00;100754.27;88012;269;138352;-69
2024/02/25 02:03:48;;;;;;;14.80;11.10;;;;;;;7.37;100.00;100759.85;87707;269;23337;-68
2024/02/25 02:05:50;;;;;;;15.40;11.50;;;;;;;7.35;100.00;100762.92;87597;265;136801;-70
2024/02/25 02:07:52;;;;;;;15.40;11.60;;;;;;;7.29;100.00;100775.91;87677;266;25548;-68
2024/02/25 02:09:54;;;;;;;13.10;9.40;;;;;;;7.24;100.00;100770.10;87576;271;136229;-67
2024/02/25 02:11:57;;;;;;;13.10;10.40;;;;;;;7.22;100.00;100763.40;87637;278;24113;-67
2024/02/25 02:13:59;;;;;;;11.80;10.40;;;;;;;7.22;100.00;100768.80;87672;270;137100;-67
2024/02/25 02:16:01;;;;;;;15.10;10.90;;;;;;;7.25;100.00;100757.75;87586;270;24074;-67
2024/02/25 02:18:03;;;;;;;13.70;9.50;;;;;;;7.30;100.00;100758.34;87617;270;22568;-68
2024/02/25 02:20:11;;;;;;;13.70;9.30;;;;;;;7.28;100.00;100747.39;87642;273;137144;-69
2024/02/25 02:22:13;;;;;;;13.90;9.00;;;;;;;7.31;100.00;100754.70;87816;270;25338;-68
2024/02/25 02:24:15;;;;;;;12.70;9.50;;;;;;;7.28;100.00;100746.66;87550;265;136826;-66
2024/02/25 02:26:17;;;;;;;14.40;9.60;;;;;;;7.25;100.00;100747.01;87132;266;25079;-68
2024/02/25 02:28:19;;;;;;;13.50;9.90;;;;;;;7.22;100.00;100756.98;87520;269;136815;-66
2024/02/25 02:30:20;;;;;;;14.60;11.20;;;;;;;7.19;100.00;100746.34;87013;278;22605;-68
2024/02/25 02:32:22;;;;;;;12.60;10.30;;;;;;;7.18;100.00;100748.52;86974;270;137337;-71
2024/02/25 02:34:24;;;;;;;11.40;8.30;;;;;;;7.23;100.00;100745.28;87104;265;25104;-70
2024/02/25 02:36:26;;;;;;;16.40;10.20;;;;;;;7.25;100.00;100746.30;86841;269;137641;-68
2024/02/25 02:38:29;;;;;;;12.40;8.50;;;;;;;7.30;100.00;100747.04;87075;269;24029;-65
2024/02/25 02:40:30;;;;;;;17.50;9.20;;;;;;;7.30;100.00;100740.95;87493;270;138534;-71
2024/02/25 02:42:32;;;;;;;12.50;9.80;;;;;;;7.28;100.00;100749.11;87536;274;22996;-69
2024/02/25 02:44:34;;;;;;;14.60;10.00;;;;;;;7.22;100.00;100748.32;87220;269;136631;-67
2024/02/25 02:46:40;;;;;;;11.70;10.30;;;;;;;7.16;100.00;100754.55;87190;274;25189;-69
2024/02/25 02:48:42;;;;;;;14.60;9.80;;;;;;;7.14;100.00;100753.77;87248;274;136752;-68
2024/02/25 02:50:44;;;;;;;15.20;10.10;;;;;;;7.16;100.00;100740.16;87224;278;22838;-67
2024/02/25 02:52:46;;;;;;;14.40;9.30;;;;;;;7.15;100.00;100749.23;87254;269;137333;-69
2024/02/25 02:54:47;;;;;;;12.10;9.30;;;;;;;7.12;100.00;100748.66;87589;274;24010;-67
2024/02/25 02:56:49;;;;;;;12.70;9.30;;;;;;;7.12;100.00;100751.47;87455;270;136923;-67
2024/02/25 02:58:51;;;;;;;13.00;10.10;;;;;;;7.12;100.00;100748.13;87482;274;23346;-67
2024/02/25 03:00:53;;;;;;;14.50;9.90;;;;;;;7.14;100.00;100753.37;87483;270;138524;-68
2024/02/25 03:02:54;;;;;;;16.40;11.60;;;;;;;7.15;100.00;100753.82;87585;271;24160;-68
2024/02/25 03:04:56;;;;;;;13.10;9.90;;;;;;;7.15;100.00;100744.07;87117;274;138503;-67
2024/02/25 03:06:58;;;;;;;17.90;9.90;;;;;;;7.13;100.00;100745.17;87127;274;23789;-67
2024/02/25 03:09:01;;;;;;;13.90;10.70;;;;;;;7.11;100.00;100725.40;87228;273;137264;-67
2024/02/25 03:11:02;;;;;;;14.70;10.40;;;;;;;7.12;100.00;100729.97;87105;269;23689;-66
2024/02/25 03:13:04;;;;;;;15.80;10.00;;;;;;;7.09;100.00;100728.98;87587;269;137443;-66
2024/02/25 03:15:06;;;;;;;14.00;10.40;;;;;;;7.11;100.00;100724.91;87262;276;26002;-69
2024/02/25 03:17:09;;;;;;;13.20;10.80;;;;;;;7.11;100.00;100733.90;87174;270;137796;-67
2024/02/25 03:19:11;;;;;;;12.80;9.80;;;;;;;7.10;100.00;100730.15;87387;273;22639;-69
2024/02/25 03:21:13;;;;;;;12.70;9.10;;;;;;;7.09;100.00;100726.16;87451;269;137653;-68
2024/02/25 03:23:15;;;;;;;13.60;9.70;;;;;;;7.09;100.00;100730.01;87177;277;25223;-67
2024/02/25 03:25:17;;;;;;;9.90;7.70;;;;;;;7.08;100.00;100721.09;87106;277;138698;-65
2024/02/25 03:27:19;;;;;;;11.20;8.30;;;;;;;7.05;100.00;100730.95;87224;269;25217;-69
2024/02/25 03:29:20;;;;;;;11.90;8.70;;;;;;;7.07;100.00;100727.61;87281;277;137710;-70
2024/02/25 03:31:22;;;;;;;10.50;7.60;;;;;;;7.07;100.00;100734.10;87630;273;25072;-67
2024/02/25 03:33:24;;;;;;;12.50;8.80;;;;;;;7.09;100.00;100734.95;87439;274;137970;-69
2024/02/25 03:35:26;;;;;;;13.80;9.70;;;;;;;7.11;100.00;100740.48;87129;269;22571;-65
2024/02/25 03:37:28;;;;;;;12.80;9.00;;;;;;;7.12;100.00;100740.70;87144;270;137599;-68
2024/02/25 03:39:30;;;;;;;10.50;8.30;;;;;;;7.13;100.00;100738.79;87340;266;23748;-66
2024/02/25 03:41:33;;;;;;;11.50;9.60;;;;;;;7.09;100.00;100740.67;87012;278;136011;-71
2024/02/25 03:43:36;;;;;;;10.40;9.20;;;;;;;7.07;100.00;100738.35;87123;270;22562;-66
2024/02/25 03:45:38;;;;;;;13.90;10.50;;;;;;;7.06;100.00;100741.88;87188;270;136619;-72
2024/02/25 03:47:39;;;;;;;11.80;9.80;;;;;;;7.07;100.00;100739.73;87781;269;22847;-66
2024/02/25 03:51:26;;;;;;;15.20;10.40;;;;;;;6.99;100.00;100744.30;84955;300;603855;-67
2024/02/25 03:53:28;;;;;;;11.90;9.80;;;;;;;7.00;100.00;100747.77;86558;290;136685;-70
2024/02/25 03:55:30;;;;;;;12.60;10.20;;;;;;;7.06;100.00;100757.89;86478;290;25133;-66
2024/02/25 03:57:32;;;;;;;19.50;12.50;;;;;;;7.08;100.00;100757.73;86636;284;136056;-72
2024/02/25 03:59:34;;;;;;;15.70;11.80;;;;;;;7.03;100.00;100752.54;86811;276;22581;-71
2024/02/25 04:01:36;;;;;;;15.70;11.90;;;;;;;6.99;100.00;100755.02;87103;272;137278;-66
2024/02/25 04:03:37;;;;;;;18.80;13.40;;;;;;;6.94;100.00;100746.80;87186;272;22651;-68
2024/02/25 04:05:40;;;;;;;17.10;12.20;;;;;;;6.89;100.00;100738.45;86517;284;730969;-66
2024/02/25 04:07:43;;;;;;;13.00;10.70;;;;;;;6.89;100.00;100737.89;86929;280;22580;-71
2024/02/25 04:09:44;;;;;;;11.30;9.20;;;;;;;6.90;100.00;100747.30;86853;279;136866;-66
2024/02/25 04:11:46;;;;;;;11.60;9.40;;;;;;;6.91;100.00;100730.63;86925;273;22591;-68
2024/02/25 04:13:48;;;;;;;14.20;8.40;;;;;;;6.91;100.00;100737.48;87280;273;137165;-67
2024/02/25 04:15:50;;;;;;;17.80;11.30;;;;;;;6.89;100.00;100742.86;87512;273;22876;-67
2024/02/25 04:17:52;;;;;;;12.60;9.60;;;;;;;6.87;100.00;100745.36;87287;279;136854;-69
2024/02/25 04:19:54;;;;;;;13.90;10.20;;;;;;;6.85;100.00;100734.61;87200;275;22583;-65
2024/02/25 04:21:55;;;;;;;16.50;12.80;;;;;;;6.87;100.00;100729.66;87105;280;137611;-67
2024/02/25 04:23:57;;;;;;;12.70;9.90;;;;;;;6.91;100.00;100730.52;86987;281;22577;-67
2024/02/25 04:25:59;;;;;;;13.50;9.20;;;;;;;6.92;100.00;100737.77;87322;273;136764;-70
2024/02/25 04:28:00;;;;;;;13.40;11.10;;;;;;;6.90;100.00;100748.97;87216;284;22586;-66
2024/02/25 04:30:03;;;;;;;14.20;11.40;;;;;;;6.89;100.00;100739.88;87372;273;135772;-67
2024/02/25 04:32:05;;;;;;;17.60;11.20;;;;;;;6.85;100.00;100741.17;87081;278;137414;-68
2024/02/25 04:34:07;;;;;;;15.10;11.10;;;;;;;6.84;100.00;100738.05;87398;273;22578;-69
2024/02/25 04:36:18;;;;;;;14.00;10.50;;;;;;;6.87;100.00;100750.50;87244;273;137401;-72
2024/02/25 04:38:19;;;;;;;12.80;10.90;;;;;;;6.88;100.00;100769.13;87096;265;24254;-68
2024/02/25 04:40:21;;;;;;;14.80;10.90;;;;;;;6.87;100.00;100759.45;86877;273;137030;-68
2024/02/25 04:42:23;;;;;;;15.80;12.20;;;;;;;6.88;100.00;100754.09;87339;275;22602;-66
2024/02/25 04:44:25;;;;;;;13.60;11.00;;;;;;;6.90;100.00;100748.23;87234;277;137935;-67
2024/02/25 04:46:26;;;;;;;16.90;11.00;;;;;;;6.90;100.00;100760.95;87394;271;22907;-71
2024/02/25 04:48:28;;;;;;;13.80;10.20;;;;;;;6.87;100.00;100770.75;87287;279;136355;-68
2024/02/25 04:50:32;;;;;;;16.40;11.80;;;;;;;6.85;100.00;100765.52;87066;278;24433;-67
2024/02/25 04:52:34;;;;;;;16.80;12.60;;;;;;;6.83;100.00;100766.73;87110;282;135909;-66
2024/02/25 04:54:35;;;;;;;16.30;12.10;;;;;;;6.80;100.00;100773.06;86892;275;22565;-67
2024/02/25 04:56:40;;;;;;;14.90;11.60;;;;;;;6.81;100.00;100772.38;86888;270;137692;-69
2024/02/25 04:58:42;;;;;;;15.70;9.40;;;;;;;6.85;100.00;100779.84;86987;275;26451;-67
2024/02/25 05:00:44;;;;;;;15.60;11.70;;;;;;;6.84;100.00;100777.10;86990;282;137761;-66
2024/02/25 05:02:46;;;;;;;20.20;12.10;;;;;;;6.85;100.00;100768.90;86639;279;22562;-67
2024/02/25 05:04:47;;;;;;;18.30;11.70;;;;;;;6.80;100.00;100763.89;87172;270;136295;-68
2024/02/25 05:06:49;;;;;;;12.90;11.10;;;;;;;6.74;100.00;100758.08;87324;281;22579;-67
2024/02/25 05:08:51;;;;;;;16.20;9.50;;;;;;;6.71;100.00;100758.39;87065;271;137513;-68
2024/02/25 05:10:53;;;;;;;15.10;9.40;;;;;;;6.72;100.00;100759.92;87390;277;22626;-64
2024/02/25 05:12:54;;;;;;;12.50;9.40;;;;;;;6.74;100.00;100771.73;87019;270;136431;-66
2024/02/25 05:14:56;;;;;;;11.70;8.80;;;;;;;6.75;100.00;100772.50;87175;272;22620;-67
2024/02/25 05:16:59;;;;;;;10.50;7.90;;;;;;;6.74;100.00;100772.80;87037;273;136692;-67
2024/02/25 05:19:01;;;;;;;9.50;7.50;;;;;;;6.78;100.00;100772.38;86902;281;23016;-68
2024/02/25 05:21:04;;;;;;;10.80;7.10;;;;;;;6.77;100.00;100762.88;87205;281;136863;-65
2024/02/25 05:23:07;;;;;;;11.80;6.90;;;;;;;6.75;100.00;100774.39;87333;271;23418;-69
2024/02/25 05:25:12;;;;;;;9.10;7.10;;;;;;;6.73;100.00;100769.50;87263;273;137035;-69
2024/02/25 05:27:14;;;;;;;10.90;7.20;;;;;;;6.69;100.00;100774.70;87546;272;22664;-69
2024/02/25 05:29:16;;;;;;;10.20;6.30;;;;;;;6.66;100.00;100781.73;87334;280;136410;-66
2024/02/25 05:31:17;;;;;;;5.90;5.10;;;;;;;6.67;100.00;100781.96;87495;277;22668;-68
2024/02/25 05:33:19;;;;;;;8.00;5.70;;;;;;;6.65;100.00;100778.06;87324;273;136893;-64
2024/02/25 05:35:21;;;;;;;7.30;5.70;;;;;;;6.70;100.00;100776.69;87203;281;22550;-66
2024/02/25 05:37:23;;;;;;;5.70;4.60;;;;;;;6.71;100.00;100794.61;87034;282;136134;-67
2024/02/25 05:39:25;;;;;;;8.10;5.60;;;;;;;6.72;100.00;100793.83;87511;269;24266;-67
2024/02/25 05:41:26;;;;;;;9.10;6.30;;;;;;;6.73;100.00;100784.34;87369;280;136684;-66
2024/02/25 05:43:29;;;;;;;8.60;5.50;;;;;;;6.78;100.00;100787.92;86806;275;22552;-72
2024/02/25 05:45:30;;;;;;;7.30;5.50;;;;;;;6.80;100.00;100798.10;87214;273;136281;-68
2024/02/25 05:47:32;;;;;;;7.90;6.90;;;;;;;6.77;100.00;100804.58;87414;281;25256;-66
2024/02/25 05:49:37;;;;;;;10.30;7.50;;;;;;;6.77;100.00;100798.64;87311;279;135410;-67
2024/02/25 05:51:39;;;;;;;10.80;7.10;;;;;;;6.77;100.00;100807.25;87328;273;22570;-66
2024/02/25 05:53:41;;;;;;;11.70;7.30;;;;;;;6.73;100.00;100805.05;86858;281;136019;-67
2024/02/25 05:55:43;;;;;;;10.80;8.60;;;;;;;6.67;100.00;100796.23;87049;273;24766;-65
2024/02/25 05:57:44;;;;;;;10.90;8.00;;;;;;;6.68;100.00;100797.60;86960;268;136389;-68
2024/02/25 05:59:46;;;;;;;9.60;7.20;;;;;;;6.70;100.00;100801.02;87069;265;22584;-65
2024/02/25 06:01:49;;;;;;;11.10;7.20;;;;;;;6.71;100.00;100803.39;86915;280;136215;-70
2024/02/25 06:03:50;;;;;;;8.90;8.00;;;;;;;6.76;100.00;100802.96;87144;273;24016;-73
2024/02/25 06:05:57;;;;;;;8.60;6.40;;;;;;;6.71;100.00;100805.88;87300;281;135630;-64
2024/02/25 06:08:00;;;;;;;7.90;6.50;;;;;;;6.68;100.00;100805.21;87617;272;23369;-71
2024/02/25 06:10:02;;;;;;;10.80;8.40;;;;;;;6.62;100.00;100801.17;87322;273;135986;-68
2024/02/25 06:12:04;;;;;;;9.10;7.50;;;;;;;6.60;100.00;100794.95;87368;281;140416;-69
2024/02/25 06:14:06;;;;;;;11.40;7.50;;;;;;;6.62;100.00;100794.03;87402;276;22552;-68
2024/02/25 06:16:08;;;;;;;7.30;6.40;;;;;;;6.67;100.00;100796.66;87284;277;137624;-67
2024/02/25 06:18:11;;;;;;;19.40;7.30;;;;;;;6.70;100.00;100802.09;87092;280;22537;-68
2024/02/25 06:20:13;;;;;;;8.70;6.90;;;;;;;6.72;100.00;100790.64;87278;268;137151;-69
2024/02/25 06:22:16;;;;;;;7.60;6.00;;;;;;;6.65;100.00;100807.20;87338;281;24097;-67
2024/02/25 06:24:18;;;;;;;12.00;8.10;;;;;;;6.58;100.00;100794.70;86877;281;137567;-68
2024/02/25 06:26:20;;;;;;;9.50;7.00;;;;;;;6.56;100.00;100788.15;87423;281;22584;-67
2024/02/25 06:28:22;;;;;;;9.60;7.00;;;;;;;6.55;100.00;100803.46;86977;273;135925;-69
2024/02/25 06:30:24;;;;;;;8.20;5.80;;;;;;;6.53;100.00;100797.23;87473;280;22590;-67
2024/02/25 06:32:26;;;;;;;7.60;5.70;;;;;;;6.55;100.00;100812.18;87254;273;137517;-68
2024/02/25 06:34:31;;;;;;;6.10;5.20;;;;;;;6.60;100.00;100807.50;87151;275;22581;-66
2024/02/25 06:36:33;;;;;;;5.30;3.90;;;;;;;6.64;100.00;100799.95;87184;280;136138;-66
2024/02/25 06:38:36;;;;;;;6.00;4.90;;;;;;;6.59;100.00;100808.17;87056;276;22849;-65
2024/02/25 06:40:38;;;;;;;7.90;4.90;;;;;;;6.54;100.00;100818.16;87320;269;135723;-69
2024/02/25 06:42:40;;;;;;;3.90;3.50;;;;;;;6.49;100.00;100809.17;87054;272;22562;-69
2024/02/25 06:44:44;;;;;;;5.60;4.10;;;;;;;6.46;100.00;100799.91;87087;280;136102;-68
2024/02/25 06:46:46;;;;;;;7.60;5.60;;;;;;;6.46;100.00;100805.41;87428;268;22560;-68
2024/02/25 06:48:48;;;;;;;7.50;4.60;;;;;;;6.45;100.00;100805.26;87181;273;137466;-66
2024/02/25 06:50:50;;;;;;;6.30;5.20;;;;;;;6.52;100.00;100801.95;87419;280;25128;-69
2024/02/25 06:52:52;;;;;;;6.80;5.00;;;;;;;6.52;100.00;100803.84;87443;273;136423;-72
2024/02/25 06:54:54;;;;;;;6.20;5.20;;;;;;;6.53;100.00;100798.71;87317;273;24167;-66
2024/02/25 06:56:56;;;;;;;9.50;5.70;;;;;;;6.51;100.00;100804.55;87199;270;135729;-67
2024/02/25 06:58:58;;;;;;;5.40;4.90;;;;;;;6.48;100.00;100798.33;87585;273;28911;-66
2024/02/25 07:00:59;;;;;;;7.00;3.70;;;;;;;6.48;100.00;100799.73;87187;275;136035;-67
2024/02/25 07:03:01;;;;;;;9.30;5.60;;;;;;;6.44;100.00;100795.18;87492;270;23709;-69
2024/02/25 07:05:04;;;;;;;9.00;4.60;;;;;;;6.38;100.00;100797.45;87425;270;135812;-67
2024/02/25 07:07:06;;;;;;;7.10;4.60;;;;;;;6.36;100.00;100789.38;87316;275;23858;-70
2024/02/25 07:09:08;;;;;;;4.20;3.80;;;;;;;6.41;100.00;100778.08;87434;277;136430;-67
2024/02/25 07:11:17;;;;;;;6.30;3.80;;;;;;;6.50;100.00;100776.06;87500;278;25323;-64
2024/02/25 07:13:19;;;;;;;4.80;3.90;;;;;;;6.54;100.00;100786.58;87565;269;137183;-70
2024/02/25 07:15:21;;;;;;;5.40;3.20;;;;;;;6.53;100.00;100804.89;87546;265;22648;-67
2024/02/25 07:17:23;;;;;;;6.50;4.40;;;;;;;6.49;100.00;100801.39;87209;269;136093;-67
2024/02/25 07:19:24;;;;;;;6.10;4.50;;;;;;;6.46;100.00;100804.84;87754;277;25003;-67
2024/02/25 07:21:27;;;;;;;6.00;4.70;;;;;;;6.47;100.00;100793.16;87535;266;135708;-70
2024/02/25 07:23:29;;;;;;;6.30;3.80;;;;;;;6.48;100.00;100799.56;87600;265;22572;-67
2024/02/25 07:25:31;;;;;;;4.50;3.80;;;;;;;6.49;100.00;100809.46;87405;270;135852;-67
2024/02/25 07:27:34;;;;;;;6.80;4.30;;;;;;;6.49;100.00;100816.94;87104;269;22560;-67
2024/02/25 07:29:36;;;;;;;6.90;4.80;;;;;;;6.51;100.00;100819.33;87500;269;136856;-68
2024/02/25 07:31:38;;;;;;;6.80;5.20;;;;;;;6.55;100.00;100815.45;87549;269;22639;-70
2024/02/25 07:33:39;;;;;;;8.80;5.60;;;;;;;6.59;100.00;100823.48;87381;269;136390;-68
2024/02/25 07:35:41;;;;;;;10.00;6.10;;;;;;;6.60;100.00;100819.05;87504;270;22552;-67
2024/02/25 07:37:48;;;;;;;8.10;5.30;;;;;;;6.58;100.00;100818.16;87456;273;137139;-70
2024/02/25 07:39:49;;;;;;;10.30;6.60;;;;;;;6.56;100.00;100832.11;87242;273;25079;-68
2024/02/25 07:41:51;;;;;;;9.90;6.70;;;;;;;6.51;100.00;100813.76;87466;271;136251;-70
2024/02/25 07:43:53;;;;;;;11.00;7.00;;;;;;;6.46;100.00;100828.04;87612;271;25095;-70
2024/02/25 07:45:55;;;;;;;10.90;6.50;;;;;;;6.41;100.00;100827.92;87479;273;136844;-68
2024/02/25 07:47:57;;;;;;;9.80;5.20;;;;;;;6.43;100.00;100822.19;87533;270;24270;-69
2024/02/25 07:50:00;;;;;;;8.00;4.80;;;;;;;6.44;100.00;100829.79;87454;277;136417;-67
2024/02/25 07:52:03;;;;;;;4.90;4.20;;;;;;;6.45;100.00;100825.98;87487;270;23697;-69
2024/02/25 07:54:05;;;;;;;9.80;6.10;;;;;;;6.42;100.00;100817.93;87576;268;25094;-69
2024/02/25 07:56:07;;;;;;;10.70;5.30;;;;;;;6.38;100.00;100825.88;87457;269;136193;-69
2024/02/25 07:58:09;;;;;;;6.70;5.00;;;;;;;6.36;100.00;100816.70;87584;270;22844;-67
2024/02/25 08:00:11;;;;;;;13.20;6.80;;;;;;;6.34;100.00;100828.21;87465;269;136103;-71
2024/02/25 08:02:13;;;;;;;10.10;7.10;;;;;;;6.35;100.00;100823.00;87279;269;22565;-71
2024/02/25 08:04:15;;;;;;;12.70;7.90;;;;;;;6.35;100.00;100826.36;87496;276;136270;-69
2024/02/25 08:06:25;;;;;;;8.30;7.00;;;;;;;6.38;100.00;100822.58;87594;265;24123;-70
2024/02/25 08:08:27;;;;;;;11.10;7.20;;;;;;;6.44;100.00;100822.19;87390;266;136615;-69
2024/02/25 08:10:29;;;;;;;11.80;6.90;;;;;;;6.50;100.00;100830.58;87485;271;24530;-68
2024/02/25 08:12:31;;;;;;;8.80;6.30;;;;;;;6.53;100.00;100830.46;87515;264;136385;-73
2024/02/25 08:14:33;;;;;;;11.50;6.40;;;;;;;6.51;100.00;100825.05;87644;269;25140;-73
2024/02/25 08:16:37;;;;;;;12.90;8.20;;;;;;;6.50;100.00;100834.86;87385;270;136894;-69
2024/02/25 08:18:47;;;;;;;11.20;7.90;;;;;;;6.50;100.00;100831.10;87621;269;25316;-72
2024/02/25 08:20:49;;;;;;;14.90;7.30;;;;;;;6.51;100.00;100828.73;87617;269;136177;-71
2024/02/25 08:22:51;;;;;;;13.20;7.50;;;;;;;6.53;100.00;100824.77;87583;269;22558;-69
2024/02/25 08:24:52;;;;;;;11.40;7.30;;;;;;;6.57;100.00;100829.38;87488;270;137385;-68
2024/02/25 08:26:54;;;;;;;10.20;6.50;;;;;;;6.60;100.00;100833.11;87548;276;25138;-71
2024/02/25 08:28:56;;;;;;;12.70;5.60;;;;;;;6.66;100.00;100815.59;87456;273;136739;-70
2024/02/25 08:30:58;;;;;;;7.90;6.00;;;;;;;6.72;100.00;100832.51;87566;274;22563;-70
2024/02/25 08:32:59;;;;;;;6.70;5.10;;;;;;;6.72;100.00;100827.58;87466;273;136362;-71
2024/02/25 08:35:03;;;;;;;8.60;5.80;;;;;;;6.68;100.00;100827.20;87562;266;22580;-71
2024/02/25 08:37:05;;;;;;;8.90;5.00;;;;;;;6.68;100.00;100836.27;87468;266;137730;-70
2024/02/25 08:39:06;;;;;;;9.60;6.80;;;;;;;6.67;100.00;100836.14;87622;266;22647;-70
2024/02/25 08:41:08;;;;;;;11.30;6.60;;;;;;;6.61;100.00;100825.41;87411;274;137531;-67
2024/02/25 08:43:10;;;;;;;6.50;4.90;;;;;;;6.60;100.00;100817.78;87527;273;25185;-70
2024/02/25 08:45:12;;;;;;;8.70;5.50;;;;;;;6.58;100.00;100819.00;87447;276;136078;-68
2024/02/25 08:47:14;;;;;;;5.20;4.20;;;;;;;6.57;100.00;100832.95;87478;267;22980;-71
2024/02/25 08:49:16;;;;;;;8.20;4.10;;;;;;;6.56;100.00;100819.34;87453;273;136096;-72
2024/02/25 08:51:17;;;;;;;8.60;4.90;;;;;;;6.56;100.00;100817.78;87565;273;22682;-71
2024/02/25 08:53:20;;;;;;;6.30;4.60;;;;;;;6.58;100.00;100819.73;87491;273;136484;-72
2024/02/25 08:55:22;;;;;;;7.00;4.60;;;;;;;6.64;100.00;100792.44;87548;265;23394;-70
2024/02/25 08:57:24;;;;;;;6.60;5.20;;;;;;;6.73;100.00;100796.71;87451;277;137635;-71
2024/02/25 08:59:26;;;;;;;8.20;5.10;;;;;;;6.81;100.00;100805.46;87552;265;22712;-71
2024/02/25 09:01:28;;;;;;;8.60;4.90;;;;;;;6.82;100.00;100799.38;87416;270;137417;-69
2024/02/25 09:03:30;;;;;;;9.90;6.40;;;;;;;6.85;100.00;100809.64;87591;270;25203;-70
2024/02/25 09:05:47;;;;;;;8.30;5.60;;;;;;;6.87;100.00;100805.95;87316;266;137113;-70
2024/02/25 09:07:50;;;;;;;10.60;4.50;;;;;;;6.87;100.00;100799.06;87759;267;24022;-71
2024/02/25 09:09:52;;;;;;;7.90;4.60;;;;;;;6.89;100.00;100800.77;87453;274;135918;-74
2024/02/25 09:11:54;;;;;;;6.20;4.80;;;;;;;6.89;100.00;100827.30;87591;269;22562;-70
2024/02/25 09:13:56;;;;;;;6.00;4.30;;;;;;;6.87;100.00;100812.48;87417;269;135703;-70
2024/02/25 09:15:58;;;;;;;9.10;4.30;;;;;;;6.82;100.00;100797.59;87574;269;22563;-68
2024/02/25 09:18:03;;;;;;;10.60;4.40;;;;;;;6.82;100.00;100804.78;87454;271;137160;-74
2024/02/25 09:20:09;;;;;;;5.00;4.00;;;;;;;6.85;100.00;100810.77;87406;271;137470;-73
2024/02/25 09:22:11;;;;;;;9.00;6.20;;;;;;;6.86;100.00;100794.39;87542;269;22570;-69
2024/02/25 09:24:13;;;;;;;9.90;6.10;;;;;;;6.88;100.00;100794.89;87429;267;136232;-69
2024/02/25 09:26:15;;;;;;;6.70;5.30;;;;;;;6.90;100.00;100800.31;87715;266;25224;-71
2024/02/25 09:28:32;;;;;;;10.00;5.50;;;;;;;6.92;100.00;100798.94;87458;274;135889;-73